Time;durP1;ratioP1;P1;durP2;ratioP2;P2;SDS_P1;SDS_P2;PMS_P1;PMS_P2;Temp;Humidity;BMP_temperature;BMP_pressure;BME280_temperature;BME280_humidity;BME280_pressure;Samples;Min_cycle;Max_cycle;Signal;HPM_P1;HPM_P2
2022/01/20 00:01:41;;;;;;;;;;;3.60;99.90;;;;;;5002744;28;20271;-72
2022/01/20 00:04:16;;;;;;;;;;;3.50;99.90;;;;;;5002119;28;20052;-73
2022/01/20 00:09:45;;;;;;;;;;;3.50;99.90;;;;;;5017847;28;21311;-73
2022/01/20 00:23:18;;;;;;;;;;;3.30;99.90;;;;;;5017805;28;20061;-72
2022/01/20 00:26:00;;;;;;;;;;;3.20;99.90;;;;;;5002700;28;20052;-72
2022/01/20 00:28:39;;;;;;;;;;;3.20;99.90;;;;;;5002556;28;21142;-73
2022/01/20 00:31:14;;;;;;;;;;;3.20;99.90;;;;;;5001729;28;20307;-72
2022/01/20 00:33:45;;;;;;;;;;;3.10;99.90;;;;;;5004114;28;20051;-72
2022/01/20 00:38:56;;;;;;;;;;;3.10;99.90;;;;;;5022040;28;20126;-73
2022/01/20 00:41:25;;;;;;;;;;;3.00;99.90;;;;;;5005977;28;20067;-72
2022/01/20 00:43:54;;;;;;;;;;;3.00;99.90;;;;;;5006145;28;20065;-72
2022/01/20 00:46:21;;;;;;;;;;;2.90;99.90;;;;;;5006605;28;20152;-72
2022/01/20 00:48:48;;;;;;;;;;;2.90;99.90;;;;;;5005190;28;20380;-70
2022/01/20 00:51:15;;;;;;;;;;;2.90;99.90;;;;;;5005955;28;20069;-73
2022/01/20 00:53:44;;;;;;;;;;;2.90;99.90;;;;;;5005317;28;20084;-72
2022/01/20 00:56:12;;;;;;;;;;;3.00;99.90;;;;;;5005407;28;21060;-72
2022/01/20 00:58:41;;;;;;;;;;;3.00;99.90;;;;;;5005824;28;20068;-71
2022/01/20 01:01:08;;;;;;;;;;;3.00;99.90;;;;;;5005268;28;20096;-72
2022/01/20 01:03:35;;;;;;;;;;;3.00;99.90;;;;;;5005604;28;20060;-73
2022/01/20 01:06:14;;;;;;;;;;;3.00;99.90;;;;;;5005794;28;20161;-72
2022/01/20 01:08:41;;;;;;;;;;;3.00;99.90;;;;;;5004733;28;20080;-73
2022/01/20 01:11:09;;;;;;;;;;;2.90;99.90;;;;;;5004295;28;20081;-72
2022/01/20 01:13:36;;;;;;;;;;;2.90;99.90;;;;;;5005473;28;20204;-72
2022/01/20 01:16:08;;;;;;;;;;;2.90;99.90;;;;;;5005756;28;20075;-72
2022/01/20 01:21:29;;;;;;;;;;;2.90;99.90;;;;;;5020511;28;20050;-72
2022/01/20 01:23:57;;;;;;;;;;;2.80;99.90;;;;;;5004822;28;20068;-72
2022/01/20 01:26:27;;;;;;;;;;;2.80;99.90;;;;;;5004708;28;21235;-72
2022/01/20 01:28:56;;;;;;;;;;;2.80;99.90;;;;;;5004025;28;20060;-73
2022/01/20 01:31:38;;;;;;;;;;;2.80;99.90;;;;;;5004879;28;20068;-72
2022/01/20 01:34:08;;;;;;;;;;;2.70;99.90;;;;;;5005274;28;20286;-72
2022/01/20 01:36:49;;;;;;;;;;;2.70;99.90;;;;;;5005242;28;21193;-73
2022/01/20 01:39:17;;;;;;;;;;;2.80;99.90;;;;;;5004076;28;20052;-73
2022/01/20 01:41:45;;;;;;;;;;;2.80;99.90;;;;;;5005223;28;20096;-72
2022/01/20 01:44:20;;;;;;;;;;;2.90;99.90;;;;;;5004705;28;20171;-72
2022/01/20 01:46:49;;;;;;;;;;;3.00;99.90;;;;;;5005109;28;21176;-72
2022/01/20 01:49:18;;;;;;;;;;;3.00;99.90;;;;;;5004621;28;20052;-72
2022/01/20 01:51:45;;;;;;;;;;;3.00;99.90;;;;;;5004887;28;20051;-73
2022/01/20 01:54:13;;;;;;;;;;;3.10;99.90;;;;;;5005348;28;20074;-72
2022/01/20 01:56:40;;;;;;;;;;;3.10;99.90;;;;;;5005540;28;20052;-73
2022/01/20 01:59:11;;;;;;;;;;;3.20;99.90;;;;;;5004306;28;20052;-72
2022/01/20 02:01:50;;;;;;;;;;;3.20;99.90;;;;;;5004625;28;20059;-72
2022/01/20 02:04:21;;;;;;;;;;;3.20;99.90;;;;;;5004762;28;20065;-72
2022/01/20 02:07:33;;;;;;;;;;;3.30;99.90;;;;;;5004472;28;20263;-72
2022/01/20 02:18:36;;;;;;;;;;;3.10;99.90;;;;;;5021324;28;20076;-73
2022/01/20 02:21:21;;;;;;;;;;;3.10;99.90;;;;;;5004010;28;20250;-72
2022/01/20 02:23:49;;;;;;;;;;;3.20;99.90;;;;;;5003987;28;20228;-72
2022/01/20 02:26:21;;;;;;;;;;;3.20;99.90;;;;;;5005250;28;20065;-71
2022/01/20 02:28:48;;;;;;;;;;;3.20;99.90;;;;;;5002878;28;20066;-70
2022/01/20 02:31:18;;;;;;;;;;;3.20;99.90;;;;;;5004853;28;21122;-73
2022/01/20 02:33:45;;;;;;;;;;;3.30;99.90;;;;;;5005201;28;21153;-72
2022/01/20 02:36:16;;;;;;;;;;;3.30;99.90;;;;;;5004399;28;20067;-72
2022/01/20 02:38:50;;;;;;;;;;;3.40;99.90;;;;;;4993486;28;20274;-72
2022/01/20 02:46:46;;;;;;;;;;;3.50;99.90;;;;;;5020729;28;20047;-73
2022/01/20 02:49:14;;;;;;;;;;;3.60;99.90;;;;;;5003072;28;20084;-72
2022/01/20 02:51:47;;;;;;;;;;;3.60;99.90;;;;;;5003076;28;20060;-72
2022/01/20 02:54:16;;;;;;;;;;;3.60;99.90;;;;;;5004195;28;21194;-72
2022/01/20 02:56:43;;;;;;;;;;;3.50;99.90;;;;;;5003636;28;21138;-73
2022/01/20 02:59:11;;;;;;;;;;;3.40;99.90;;;;;;5002852;28;20177;-72
2022/01/20 03:01:38;;;;;;;;;;;3.20;99.90;;;;;;5003195;28;20099;-72
2022/01/20 03:04:05;;;;;;;;;;;3.20;99.90;;;;;;5003082;28;20090;-73
2022/01/20 03:06:33;;;;;;;;;;;3.10;99.90;;;;;;5003809;28;20074;-72
2022/01/20 03:09:00;;;;;;;;;;;3.00;99.90;;;;;;5003078;28;20065;-72
2022/01/20 03:11:29;;;;;;;;;;;3.00;99.90;;;;;;5003506;28;20066;-72
2022/01/20 03:13:56;;;;;;;;;;;2.90;99.90;;;;;;5003594;28;20068;-72
2022/01/20 03:16:24;;;;;;;;;;;2.80;99.90;;;;;;5003056;28;20060;-72
2022/01/20 03:18:51;;;;;;;;;;;2.80;99.90;;;;;;5002869;28;20061;-71
2022/01/20 03:21:18;;;;;;;;;;;2.70;99.90;;;;;;5002745;28;20258;-73
2022/01/20 03:23:45;;;;;;;;;;;2.70;99.90;;;;;;5003614;28;20059;-72
2022/01/20 03:26:14;;;;;;;;;;;2.70;99.90;;;;;;5003180;28;20066;-72
2022/01/20 03:28:43;;;;;;;;;;;2.70;99.90;;;;;;5002528;28;20067;-72
2022/01/20 03:31:10;;;;;;;;;;;2.70;99.90;;;;;;5002080;28;20203;-73
2022/01/20 03:33:37;;;;;;;;;;;2.70;99.90;;;;;;5003360;28;21280;-73
2022/01/20 03:36:04;;;;;;;;;;;2.80;99.90;;;;;;5002444;28;20265;-73
2022/01/20 03:38:44;;;;;;;;;;;2.90;99.90;;;;;;5006152;28;20244;-72
2022/01/20 03:41:11;;;;;;;;;;;2.90;99.90;;;;;;5001834;28;21118;-73
2022/01/20 03:43:38;;;;;;;;;;;2.90;99.90;;;;;;5002485;28;20077;-73
2022/01/20 03:46:12;;;;;;;;;;;3.00;99.90;;;;;;5003384;28;20051;-73
2022/01/20 03:48:49;;;;;;;;;;;3.00;99.90;;;;;;5002764;28;20248;-70
2022/01/20 03:51:20;;;;;;;;;;;3.00;99.90;;;;;;5002114;28;20051;-73
2022/01/20 03:53:48;;;;;;;;;;;3.00;99.90;;;;;;5002517;28;20058;-72
2022/01/20 03:56:16;;;;;;;;;;;3.10;99.90;;;;;;5002449;28;20052;-73
2022/01/20 03:59:06;;;;;;;;;;;3.10;99.90;;;;;;5003605;28;20057;-72
2022/01/20 04:01:35;;;;;;;;;;;3.10;99.90;;;;;;5002720;28;20058;-73
2022/01/20 04:04:23;;;;;;;;;;;3.10;99.90;;;;;;5002299;28;20177;-73
2022/01/20 04:07:06;;;;;;;;;;;3.10;99.90;;;;;;5003750;28;20057;-73
2022/01/20 04:09:33;;;;;;;;;;;3.20;99.90;;;;;;5005978;28;20296;-73
2022/01/20 04:12:00;;;;;;;;;;;3.20;99.90;;;;;;5006736;28;20060;-73
2022/01/20 04:14:30;;;;;;;;;;;3.30;99.90;;;;;;5006584;28;20058;-73
2022/01/20 04:17:04;;;;;;;;;;;3.30;99.90;;;;;;5006131;28;21060;-72
2022/01/20 04:19:33;;;;;;;;;;;3.30;99.90;;;;;;5006420;28;20331;-72
2022/01/20 04:22:01;;;;;;;;;;;3.20;99.90;;;;;;5006857;28;20075;-72
2022/01/20 04:24:29;;;;;;;;;;;3.20;99.90;;;;;;5006176;28;20058;-72
2022/01/20 04:26:56;;;;;;;;;;;3.10;99.90;;;;;;5005982;28;20080;-72
2022/01/20 04:29:25;;;;;;;;;;;3.00;99.90;;;;;;5004611;28;20069;-72
2022/01/20 04:31:53;;;;;;;;;;;3.10;99.90;;;;;;5005478;28;21150;-72
2022/01/20 04:34:21;;;;;;;;;;;3.10;99.90;;;;;;5005860;28;20069;-73
2022/01/20 04:36:53;;;;;;;;;;;3.00;99.90;;;;;;5005747;28;20076;-72
2022/01/20 04:39:24;;;;;;;;;;;3.10;99.90;;;;;;5005721;28;20051;-72
2022/01/20 04:41:54;;;;;;;;;;;3.20;99.90;;;;;;5006222;28;20059;-73
2022/01/20 04:44:34;;;;;;;;;;;3.20;99.90;;;;;;5006371;28;20067;-73
2022/01/20 04:47:12;;;;;;;;;;;3.10;99.90;;;;;;5006281;28;20060;-73
2022/01/20 04:57:55;;;;;;;;;;;2.90;99.90;;;;;;5023497;28;20063;-72
2022/01/20 05:00:22;;;;;;;;;;;2.90;99.90;;;;;;5005157;28;20149;-73
2022/01/20 05:03:09;;;;;;;;;;;2.90;99.90;;;;;;5009632;28;20252;-72
2022/01/20 05:05:39;;;;;;;;;;;2.90;99.90;;;;;;5005729;28;20065;-73
2022/01/20 05:08:12;;;;;;;;;;;3.00;99.90;;;;;;5005939;28;20067;-73
2022/01/20 05:10:39;;;;;;;;;;;3.10;99.90;;;;;;5005362;28;20051;-72
2022/01/20 05:13:12;;;;;;;;;;;3.20;99.90;;;;;;5005854;28;20073;-72
2022/01/20 05:15:41;;;;;;;;;;;3.20;99.90;;;;;;5006773;28;21169;-72
2022/01/20 05:18:08;;;;;;;;;;;3.20;99.90;;;;;;5005260;28;20105;-73
2022/01/20 05:20:35;;;;;;;;;;;3.10;99.90;;;;;;5003661;28;21183;-74
2022/01/20 05:23:04;;;;;;;;;;;3.20;99.90;;;;;;5005317;28;21263;-74
2022/01/20 05:25:31;;;;;;;;;;;3.20;99.90;;;;;;5005361;28;20067;-73
2022/01/20 05:27:59;;;;;;;;;;;3.30;99.90;;;;;;4986243;28;20067;-73
2022/01/20 05:30:26;;;;;;;;;;;3.30;99.90;;;;;;4999681;28;20165;-74
2022/01/20 05:33:13;;;;;;;;;;;3.30;99.90;;;;;;5004413;28;21150;-73
2022/01/20 05:35:41;;;;;;;;;;;3.30;99.90;;;;;;5005369;28;21160;-74
2022/01/20 05:38:12;;;;;;;;;;;3.30;99.90;;;;;;5005390;28;20058;-73
2022/01/20 05:40:39;;;;;;;;;;;3.40;99.90;;;;;;5004830;28;20052;-74
2022/01/20 05:43:07;;;;;;;;;;;3.40;99.90;;;;;;5005305;28;20088;-73
2022/01/20 05:45:35;;;;;;;;;;;3.40;99.90;;;;;;5005203;28;20244;-73
2022/01/20 05:48:11;;;;;;;;;;;3.40;99.90;;;;;;5004818;28;20070;-73
2022/01/20 05:50:58;;;;;;;;;;;3.40;99.90;;;;;;4994710;28;20193;-73
2022/01/20 05:53:27;;;;;;;;;;;3.40;99.90;;;;;;5005107;28;21545;-73
2022/01/20 05:55:55;;;;;;;;;;;3.40;99.90;;;;;;5005351;28;20263;-74
2022/01/20 05:58:23;;;;;;;;;;;3.30;99.90;;;;;;5004848;28;20193;-74
2022/01/20 06:00:52;;;;;;;;;;;3.30;99.90;;;;;;5003419;28;20256;-74
2022/01/20 06:03:37;;;;;;;;;;;3.30;99.90;;;;;;4974741;28;20069;-74
2022/01/20 06:06:08;;;;;;;;;;;3.30;99.90;;;;;;4969812;28;20059;-73
2022/01/20 06:08:37;;;;;;;;;;;3.30;99.90;;;;;;4965165;28;20069;-73
2022/01/20 06:11:04;;;;;;;;;;;3.20;99.90;;;;;;4969583;28;20193;-73
2022/01/20 06:13:33;;;;;;;;;;;3.20;99.90;;;;;;5001357;28;20075;-73
2022/01/20 06:16:01;;;;;;;;;;;3.20;99.90;;;;;;4984746;28;20066;-73
2022/01/20 06:18:28;;;;;;;;;;;3.30;99.90;;;;;;5001118;28;20061;-73
2022/01/20 06:20:58;;;;;;;;;;;3.30;99.90;;;;;;4984144;28;20093;-73
2022/01/20 06:23:25;;;;;;;;;;;3.30;99.90;;;;;;4965201;28;20178;-73
2022/01/20 06:25:55;;;;;;;;;;;3.30;99.90;;;;;;4982905;28;20069;-71
2022/01/20 06:28:22;;;;;;;;;;;3.30;99.90;;;;;;4991716;28;20191;-74
2022/01/20 06:30:50;;;;;;;;;;;3.30;99.90;;;;;;4981248;28;20061;-73
2022/01/20 06:33:18;;;;;;;;;;;3.30;99.90;;;;;;4984396;28;20406;-73
2022/01/20 06:35:51;;;;;;;;;;;3.30;99.90;;;;;;4984407;28;20182;-73
2022/01/20 06:38:19;;;;;;;;;;;3.30;99.90;;;;;;4984386;28;21127;-74
2022/01/20 06:40:46;;;;;;;;;;;3.20;99.90;;;;;;4989568;28;20266;-73
2022/01/20 06:43:16;;;;;;;;;;;3.20;99.90;;;;;;4983265;28;20200;-73
2022/01/20 06:45:43;;;;;;;;;;;3.20;99.90;;;;;;4984260;28;20091;-72
2022/01/20 06:48:14;;;;;;;;;;;3.20;99.90;;;;;;4984841;28;20082;-73
2022/01/20 06:51:05;;;;;;;;;;;3.20;99.90;;;;;;4986955;28;20059;-73
2022/01/20 06:53:32;;;;;;;;;;;3.10;99.90;;;;;;4983656;28;21049;-77
2022/01/20 06:55:59;;;;;;;;;;;3.10;99.90;;;;;;4986437;28;20265;-83
2022/01/20 06:58:28;;;;;;;;;;;3.10;99.90;;;;;;4986389;28;20088;-73
2022/01/20 07:00:55;;;;;;;;;;;3.10;99.90;;;;;;4982705;28;21129;-72
2022/01/20 07:03:28;;;;;;;;;;;3.10;99.90;;;;;;4983761;28;20259;-74
2022/01/20 07:05:55;;;;;;;;;;;3.10;99.90;;;;;;4979355;28;20069;-73
2022/01/20 07:08:25;;;;;;;;;;;3.10;99.90;;;;;;4979754;28;20225;-73
2022/01/20 07:10:52;;;;;;;;;;;3.10;99.90;;;;;;4988558;28;20060;-71
2022/01/20 07:13:20;;;;;;;;;;;3.10;99.90;;;;;;4985387;28;20075;-74
2022/01/20 07:15:49;;;;;;;;;;;3.10;99.90;;;;;;4984209;28;20081;-74
2022/01/20 07:18:17;;;;;;;;;;;3.10;99.90;;;;;;4998526;28;20129;-74
2022/01/20 07:20:44;;;;;;;;;;;3.10;99.90;;;;;;4995045;28;20203;-74
2022/01/20 07:23:11;;;;;;;;;;;3.10;99.90;;;;;;5006774;28;20091;-75
2022/01/20 07:25:51;;;;;;;;;;;3.10;99.90;;;;;;5004326;28;20153;-74
2022/01/20 07:28:19;;;;;;;;;;;3.00;99.90;;;;;;5003175;28;20057;-74
2022/01/20 07:30:50;;;;;;;;;;;3.00;99.90;;;;;;5002650;28;20059;-74
2022/01/20 07:33:19;;;;;;;;;;;3.00;99.90;;;;;;5002888;28;20060;-72
2022/01/20 07:35:47;;;;;;;;;;;3.00;99.90;;;;;;5003421;28;20100;-72
2022/01/20 07:38:15;;;;;;;;;;;3.00;99.90;;;;;;4998273;28;20082;-74
2022/01/20 07:40:43;;;;;;;;;;;2.90;99.90;;;;;;4963611;28;20069;-73
2022/01/20 07:43:10;;;;;;;;;;;2.90;99.90;;;;;;4964062;28;20052;-73
2022/01/20 07:45:57;;;;;;;;;;;2.80;99.90;;;;;;5006328;28;20253;-73
2022/01/20 07:48:27;;;;;;;;;;;2.80;99.90;;;;;;5003321;28;21288;-73
2022/01/20 07:51:12;;;;;;;;;;;2.80;99.90;;;;;;4986570;28;20280;-72
2022/01/20 07:53:39;;;;;;;;;;;2.80;99.90;;;;;;4990092;28;20104;-72
2022/01/20 07:56:08;;;;;;;;;;;2.70;99.90;;;;;;4995685;28;20105;-73
2022/01/20 07:58:36;;;;;;;;;;;2.70;99.90;;;;;;4987193;28;20450;-71
2022/01/20 08:01:06;;;;;;;;;;;2.70;99.90;;;;;;4995125;28;20077;-73
2022/01/20 08:03:38;;;;;;;;;;;2.70;99.90;;;;;;4985749;28;20068;-72
2022/01/20 08:06:09;;;;;;;;;;;2.70;99.90;;;;;;4991772;28;21162;-72
2022/01/20 08:08:42;;;;;;;;;;;2.70;99.90;;;;;;4983760;28;20061;-72
2022/01/20 08:11:35;;;;;;;;;;;2.60;99.90;;;;;;4971950;28;20117;-72
2022/01/20 08:14:22;;;;;;;;;;;2.60;99.90;;;;;;5006349;28;20075;-72
2022/01/20 08:16:51;;;;;;;;;;;2.60;99.90;;;;;;5003271;28;20069;-72
2022/01/20 08:19:20;;;;;;;;;;;2.70;99.90;;;;;;4995627;28;20089;-72
2022/01/20 08:21:47;;;;;;;;;;;2.80;99.90;;;;;;4989620;28;20097;-72
2022/01/20 08:24:15;;;;;;;;;;;2.90;99.90;;;;;;4985605;28;20091;-72
2022/01/20 08:26:42;;;;;;;;;;;2.90;99.90;;;;;;4981030;28;20168;-72
2022/01/20 08:29:09;;;;;;;;;;;3.00;99.90;;;;;;4984093;28;20077;-72
2022/01/20 08:31:38;;;;;;;;;;;3.10;99.90;;;;;;5019159;22;20092;-71
2022/01/20 08:34:26;;;;;;;;;;;3.20;99.90;;;;;;5005380;28;20066;-72
2022/01/20 08:37:22;;;;;;;;;;;3.20;99.90;;;;;;5010204;28;20161;-72
2022/01/20 08:39:49;;;;;;;;;;;3.20;99.90;;;;;;5004809;28;21108;-70
2022/01/20 08:42:18;;;;;;;;;;;3.20;99.90;;;;;;5014299;28;20067;-71
2022/01/20 08:44:45;;;;;;;;;;;3.30;99.90;;;;;;5000957;28;20085;-71
2022/01/20 08:47:17;;;;;;;;;;;3.20;99.90;;;;;;5003166;28;20268;-71
2022/01/20 08:49:47;;;;;;;;;;;3.20;99.90;;;;;;5002421;28;20187;-70
2022/01/20 08:52:15;;;;;;;;;;;3.20;99.90;;;;;;5005731;28;21145;-74
2022/01/20 08:54:47;;;;;;;;;;;3.10;99.90;;;;;;5007067;28;20073;-71
2022/01/20 08:57:32;;;;;;;;;;;3.20;99.90;;;;;;5009351;28;20065;-71
2022/01/20 08:59:59;;;;;;;;;;;3.30;99.90;;;;;;5009078;28;21271;-72
2022/01/20 09:02:28;;;;;;;;;;;3.40;99.90;;;;;;5008407;28;21136;-72
2022/01/20 09:04:58;;;;;;;;;;;3.50;99.90;;;;;;5009054;28;20067;-72
2022/01/20 09:07:46;;;;;;;;;;;3.50;99.90;;;;;;5004329;28;20099;-70
2022/01/20 09:10:19;;;;;;;;;;;3.50;99.90;;;;;;5007578;28;20081;-71
2022/01/20 09:15:32;;;;;;;;;;;3.40;99.90;;;;;;4989236;28;21118;-70
2022/01/20 09:18:19;;;;;;;;;;;3.50;99.90;;;;;;5007867;28;20074;-71
2022/01/20 09:20:48;;;;;;;;;;;3.60;99.90;;;;;;4988942;28;20058;-70
2022/01/20 09:23:15;;;;;;;;;;;3.70;99.90;;;;;;4988676;28;20052;-70
2022/01/20 09:25:44;;;;;;;;;;;3.80;99.90;;;;;;4990342;28;20058;-71
2022/01/20 09:28:11;;;;;;;;;;;3.80;99.90;;;;;;4989407;28;20087;-70
2022/01/20 09:30:40;;;;;;;;;;;3.80;99.90;;;;;;4988725;28;20108;-71
2022/01/20 09:33:14;;;;;;;;;;;3.80;99.90;;;;;;4988397;28;20186;-70
2022/01/20 09:35:42;;;;;;;;;;;3.80;99.90;;;;;;4988712;28;20075;-69
2022/01/20 09:38:13;;;;;;;;;;;3.80;99.90;;;;;;4988767;28;20052;-70
2022/01/20 09:40:40;;;;;;;;;;;3.90;99.90;;;;;;4988126;28;20161;-70
2022/01/20 09:43:10;;;;;;;;;;;4.00;99.90;;;;;;4988543;28;20331;-70
2022/01/20 09:45:38;;;;;;;;;;;4.10;99.90;;;;;;4989279;28;20052;-71
2022/01/20 09:48:06;;;;;;;;;;;4.10;99.90;;;;;;4989778;28;20075;-69
2022/01/20 09:51:05;;;;;;;;;;;4.10;99.90;;;;;;4991110;28;21306;-70
2022/01/20 09:53:43;;;;;;;;;;;4.20;99.90;;;;;;5007460;28;20067;-69
2022/01/20 09:56:19;;;;;;;;;;;4.30;99.90;;;;;;5007620;28;20067;-70
2022/01/20 09:58:47;;;;;;;;;;;4.40;99.90;;;;;;4988285;28;20183;-71
2022/01/20 10:01:31;;;;;;;;;;;4.40;99.90;;;;;;4988940;28;20074;-70
2022/01/20 10:03:59;;;;;;;;;;;4.40;99.90;;;;;;4988114;28;20069;-70
2022/01/20 10:06:26;;;;;;;;;;;4.30;99.90;;;;;;4988799;28;20059;-70
2022/01/20 10:09:08;;;;;;;;;;;4.30;99.90;;;;;;4987542;28;20071;-72
2022/01/20 10:12:08;;;;;;;;;;;4.30;99.90;;;;;;4994255;28;20076;-71
2022/01/20 10:15:02;;;;;;;;;;;4.30;99.90;;;;;;5005564;28;20052;-72
2022/01/20 10:17:48;;;;;;;;;;;4.20;99.90;;;;;;5008412;28;21056;-71
2022/01/20 10:20:20;;;;;;;;;;;4.20;99.90;;;;;;4986882;28;20151;-71
2022/01/20 10:22:56;;;;;;;;;;;4.20;99.90;;;;;;4987337;28;20271;-71
2022/01/20 10:25:47;;;;;;;;;;;4.20;99.90;;;;;;4994792;28;20153;-71
2022/01/20 10:28:18;;;;;;;;;;;4.20;99.90;;;;;;4987141;28;20266;-71
2022/01/20 10:30:48;;;;;;;;;;;4.20;99.90;;;;;;4987421;28;20060;-70
2022/01/20 10:33:16;;;;;;;;;;;4.20;99.90;;;;;;4986835;28;21096;-71
2022/01/20 10:35:46;;;;;;;;;;;4.20;99.90;;;;;;5003931;28;20052;-70
2022/01/20 10:38:50;;;;;;;;;;;4.30;99.90;;;;;;4989080;28;21093;-70
2022/01/20 10:41:30;;;;;;;;;;;4.20;99.90;;;;;;4988139;28;20077;-71
2022/01/20 10:44:05;;;;;;;;;;;4.20;99.90;;;;;;4987949;28;21252;-70
2022/01/20 10:46:43;;;;;;;;;;;4.20;99.90;;;;;;4987983;28;20201;-71
2022/01/20 10:49:13;;;;;;;;;;;4.30;99.90;;;;;;4986198;28;20067;-70
2022/01/20 10:52:00;;;;;;;;;;;4.30;99.90;;;;;;4987619;28;20074;-70
2022/01/20 10:54:35;;;;;;;;;;;4.30;99.90;;;;;;5004038;28;20075;-71
2022/01/20 10:57:04;;;;;;;;;;;4.20;99.90;;;;;;5004229;28;21323;-71
2022/01/20 10:59:32;;;;;;;;;;;4.20;99.90;;;;;;5005096;28;20219;-71
2022/01/20 11:02:03;;;;;;;;;;;4.30;99.90;;;;;;4999912;28;21212;-70
2022/01/20 11:04:31;;;;;;;;;;;4.40;99.90;;;;;;5006784;28;20083;-71
2022/01/20 11:07:02;;;;;;;;;;;4.50;99.90;;;;;;5005244;28;20076;-71
2022/01/20 11:09:35;;;;;;;;;;;4.60;99.90;;;;;;5012864;28;20075;-71
2022/01/20 11:12:27;;;;;;;;;;;4.70;99.90;;;;;;5016201;28;20186;-70
2022/01/20 11:15:04;;;;;;;;;;;4.80;99.90;;;;;;5003281;28;20058;-70
2022/01/20 11:17:33;;;;;;;;;;;4.80;99.90;;;;;;5021968;28;20096;-70
2022/01/20 11:20:05;;;;;;;;;;;4.80;99.90;;;;;;5005081;28;20073;-70
2022/01/20 11:22:33;;;;;;;;;;;4.80;99.90;;;;;;5006362;28;20058;-70
2022/01/20 11:25:16;;;;;;;;;;;4.80;99.90;;;;;;5006017;28;20065;-70
2022/01/20 11:28:08;;;;;;;;;;;4.70;99.90;;;;;;5008951;28;20268;-70
2022/01/20 11:30:59;;;;;;;;;;;4.60;99.90;;;;;;4991761;28;20066;-70
2022/01/20 11:33:58;;;;;;;;;;;4.70;99.90;;;;;;4979716;28;20250;-70
2022/01/20 11:36:26;;;;;;;;;;;4.80;99.90;;;;;;4985630;28;20060;-70
2022/01/20 11:38:59;;;;;;;;;;;4.70;99.90;;;;;;4984480;28;21799;-70
2022/01/20 11:41:33;;;;;;;;;;;4.60;99.90;;;;;;4986067;28;20058;-70
2022/01/20 11:44:08;;;;;;;;;;;4.50;99.90;;;;;;4986012;28;20059;-70
2022/01/20 11:46:38;;;;;;;;;;;4.40;99.90;;;;;;4986108;28;20059;-70
2022/01/20 11:49:08;;;;;;;;;;;4.30;99.90;;;;;;4985366;28;20180;-70
2022/01/20 11:51:50;;;;;;;;;;;4.30;99.90;;;;;;4986272;28;20051;-70
2022/01/20 11:54:18;;;;;;;;;;;4.30;99.90;;;;;;4985293;28;20141;-70
2022/01/20 11:56:46;;;;;;;;;;;4.30;99.90;;;;;;4985998;28;20075;-70
2022/01/20 11:59:15;;;;;;;;;;;4.40;99.90;;;;;;4985016;28;20162;-71
2022/01/20 12:01:43;;;;;;;;;;;4.40;99.90;;;;;;4985455;28;20057;-70
2022/01/20 12:04:11;;;;;;;;;;;4.40;99.90;;;;;;4986118;28;20161;-71
2022/01/20 12:06:47;;;;;;;;;;;4.30;99.90;;;;;;4991289;28;21133;-70
2022/01/20 12:09:28;;;;;;;;;;;4.40;99.90;;;;;;5005299;28;20257;-70
2022/01/20 12:11:55;;;;;;;;;;;4.60;99.90;;;;;;4990789;28;21220;-70
2022/01/20 12:14:35;;;;;;;;;;;5.00;99.90;;;;;;4985343;28;21354;-71
2022/01/20 12:17:03;;;;;;;;;;;6.90;99.90;;;;;;4986346;28;20099;-71
2022/01/20 12:19:30;;;;;;;;;;;6.80;99.90;;;;;;4984719;28;20059;-70
2022/01/20 12:21:57;;;;;;;;;;;6.30;99.90;;;;;;4985965;28;20060;-70
2022/01/20 12:24:24;;;;;;;;;;;7.30;99.90;;;;;;4985091;28;20099;-71
2022/01/20 12:26:52;;;;;;;;;;;10.40;99.90;;;;;;4986087;28;20145;-70
2022/01/20 12:29:19;;;;;;;;;;;10.80;99.90;;;;;;4986012;28;20052;-70
2022/01/20 12:31:51;;;;;;;;;;;9.30;99.90;;;;;;4989599;28;20051;-71
2022/01/20 12:34:19;;;;;;;;;;;8.50;99.90;;;;;;4989116;28;21034;-71
2022/01/20 12:36:53;;;;;;;;;;;7.80;99.90;;;;;;4988947;28;20153;-70
2022/01/20 12:39:26;;;;;;;;;;;7.00;99.90;;;;;;4988349;28;20076;-71
2022/01/20 12:41:57;;;;;;;;;;;6.40;99.90;;;;;;4988637;28;20063;-70
2022/01/20 12:44:25;;;;;;;;;;;5.90;99.90;;;;;;4992318;28;20086;-71
2022/01/20 12:46:54;;;;;;;;;;;5.40;99.90;;;;;;5019965;28;20096;-70
2022/01/20 12:49:21;;;;;;;;;;;5.00;99.90;;;;;;5011128;28;20170;-70
2022/01/20 12:51:51;;;;;;;;;;;4.90;99.90;;;;;;5008847;28;20059;-69
2022/01/20 12:54:26;;;;;;;;;;;4.90;99.90;;;;;;5005932;28;20060;-70
2022/01/20 12:56:53;;;;;;;;;;;8.90;99.90;;;;;;5015100;28;20068;-71
2022/01/20 12:59:21;;;;;;;;;;;12.50;99.90;;;;;;5024285;28;20167;-71
2022/01/20 13:01:49;;;;;;;;;;;14.50;99.90;;;;;;5029054;28;20085;-71
2022/01/20 13:04:18;;;;;;;;;;;15.30;99.90;;;;;;5003608;28;20179;-70
2022/01/20 13:06:51;;;;;;;;;;;15.70;99.90;;;;;;5022445;28;20075;-71
2022/01/20 13:09:21;;;;;;;;;;;16.00;99.90;;;;;;5010074;28;20058;-71
2022/01/20 13:11:53;;;;;;;;;;;16.20;99.90;;;;;;5014078;28;20082;-71
2022/01/20 13:14:22;;;;;;;;;;;15.60;99.90;;;;;;5027293;28;20057;-72
2022/01/20 13:16:53;;;;;;;;;;;16.60;99.90;;;;;;5029076;28;20274;-75
2022/01/20 13:19:31;;;;;;;;;;;15.90;99.90;;;;;;5018656;28;20073;-71
2022/01/20 13:22:00;;;;;;;;;;;16.10;99.90;;;;;;5016209;28;20345;-71
2022/01/20 13:24:28;;;;;;;;;;;15.80;99.90;;;;;;5028978;28;21052;-70
2022/01/20 13:26:55;;;;;;;;;;;15.80;99.90;;;;;;5028752;28;20082;-70
2022/01/20 13:29:23;;;;;;;;;;;16.40;99.90;;;;;;5027630;28;20051;-71
2022/01/20 13:31:51;;;;;;;;;;;14.90;99.90;;;;;;5027507;28;21063;-71
2022/01/20 13:34:19;;;;;;;;;;;15.30;99.90;;;;;;5028775;28;20068;-71
2022/01/20 13:36:48;;;;;;;;;;;16.00;99.90;;;;;;5027603;28;20059;-71
2022/01/20 13:39:16;;;;;;;;;;;16.30;99.90;;;;;;5027420;28;20060;-70
2022/01/20 13:41:43;;;;;;;;;;;13.60;99.90;;;;;;5027851;28;20095;-70
2022/01/20 13:47:02;;;;;;;;;;;10.70;99.90;;;;;;5028539;28;20046;-69
2022/01/20 13:49:29;;;;;;;;;;;8.40;99.90;;;;;;5029013;28;20180;-70
2022/01/20 13:52:03;;;;;;;;;;;7.30;99.90;;;;;;5029359;28;20139;-69
2022/01/20 13:54:40;;;;;;;;;;;6.90;99.90;;;;;;5022730;28;20075;-70
2022/01/20 13:57:07;;;;;;;;;;;6.30;99.90;;;;;;5018508;28;20059;-70
2022/01/20 13:59:34;;;;;;;;;;;5.90;99.90;;;;;;5007193;28;20069;-70
2022/01/20 14:02:01;;;;;;;;;;;5.80;99.90;;;;;;5008559;28;20634;-70
2022/01/20 14:04:28;;;;;;;;;;;5.60;99.90;;;;;;5015077;28;20177;-74
2022/01/20 14:06:55;;;;;;;;;;;5.50;99.90;;;;;;5025527;28;20073;-70
2022/01/20 14:09:24;;;;;;;;;;;5.30;99.90;;;;;;5026330;28;20059;-70
2022/01/20 14:11:51;;;;;;;;;;;5.20;99.90;;;;;;5013675;28;20082;-71
2022/01/20 14:14:18;;;;;;;;;;;5.10;99.90;;;;;;5007975;28;21159;-70
2022/01/20 14:16:46;;;;;;;;;;;5.00;99.90;;;;;;5007678;28;21040;-71
2022/01/20 14:19:14;;;;;;;;;;;5.10;99.90;;;;;;5007273;28;20067;-71
2022/01/20 14:21:41;;;;;;;;;;;7.20;99.90;;;;;;5007675;28;20180;-72
2022/01/20 14:24:08;;;;;;;;;;;9.70;99.90;;;;;;5007449;28;20068;-72
2022/01/20 14:26:43;;;;;;;;;;;9.60;99.90;;;;;;5008710;28;20081;-71
2022/01/20 14:29:10;;;;;;;;;;;8.40;99.90;;;;;;5007138;28;20051;-71
2022/01/20 14:31:38;;;;;;;;;;;7.60;99.90;;;;;;4999256;28;20067;-71
2022/01/20 14:34:05;;;;;;;;;;;6.80;99.90;;;;;;5009430;28;20069;-72
2022/01/20 14:36:32;;;;;;;;;;;6.10;99.90;;;;;;5007122;28;20059;-71
2022/01/20 14:38:59;;;;;;;;;;;5.80;99.90;;;;;;5008416;28;20178;-71
2022/01/20 14:41:29;;;;;;;;;;;5.80;99.90;;;;;;5015945;28;20068;-70
2022/01/20 14:43:58;;;;;;;;;;;5.90;99.90;;;;;;5009351;28;20060;-71
2022/01/20 14:46:25;;;;;;;;;;;6.50;99.90;;;;;;5020703;28;20059;-71
2022/01/20 14:48:52;;;;;;;;;;;6.10;99.90;;;;;;5010016;28;20213;-70
2022/01/20 14:51:19;;;;;;;;;;;5.80;99.90;;;;;;5002925;28;20064;-71
2022/01/20 14:53:46;;;;;;;;;;;5.50;99.90;;;;;;5009983;28;20090;-71
2022/01/20 14:56:18;;;;;;;;;;;5.30;99.90;;;;;;5018655;28;21085;-71
2022/01/20 14:58:47;;;;;;;;;;;5.10;99.90;;;;;;5002204;28;21702;-70
2022/01/20 15:01:17;;;;;;;;;;;4.60;99.90;;;;;;4987109;28;20209;-71
2022/01/20 15:03:44;;;;;;;;;;;4.30;99.90;;;;;;4986965;28;20170;-72
2022/01/20 15:06:11;;;;;;;;;;;4.00;99.90;;;;;;4988424;28;21305;-70
2022/01/20 15:08:38;;;;;;;;;;;3.70;99.90;;;;;;4983497;28;20059;-71
2022/01/20 15:11:05;;;;;;;;;;;3.60;99.90;;;;;;4993113;28;20077;-72
2022/01/20 15:13:32;;;;;;;;;;;3.40;99.90;;;;;;5006517;28;20084;-72
2022/01/20 15:15:59;;;;;;;;;;;3.40;99.90;;;;;;5007104;28;20099;-71
2022/01/20 15:18:28;;;;;;;;;;;3.30;99.90;;;;;;5006686;28;20073;-72
2022/01/20 15:20:55;;;;;;;;;;;3.30;99.90;;;;;;5005778;28;20152;-70
2022/01/20 15:23:22;;;;;;;;;;;3.30;99.90;;;;;;5006503;28;20068;-72
2022/01/20 15:25:49;;;;;;;;;;;3.20;99.90;;;;;;5006453;28;20068;-72
2022/01/20 15:28:16;;;;;;;;;;;3.20;99.90;;;;;;5006602;28;20076;-72
2022/01/20 15:30:44;;;;;;;;;;;3.10;99.90;;;;;;5005454;28;20068;-71
2022/01/20 15:33:11;;;;;;;;;;;3.10;99.90;;;;;;5006310;28;20152;-72
2022/01/20 15:35:41;;;;;;;;;;;3.00;99.90;;;;;;5006440;28;20060;-72
2022/01/20 15:38:09;;;;;;;;;;;3.00;99.90;;;;;;5006435;28;20066;-72
2022/01/20 15:40:36;;;;;;;;;;;3.00;99.90;;;;;;5005870;28;20290;-71